CGMPW KPDX-
Flight info
| Callsign | CGMPW |
|---|---|
| Flight time | N/A |
| Altitude | VFR/035 |
| Route | VFR |
| Aircraft | AS50/L-DOV/C |
Departure
| Time | 2026-05-07 09:56 |
|---|---|
| Airport | Portland International Airport (KPDX) |
Arrival
| Time | N/A |
|---|---|
| Airport | - |
| Time | Latitude | Longitude | Altitude | Speed | Heading |
|---|---|---|---|---|---|
| 2026-05-07 09:54 | 45.58404 | -122.57593 | 25 ft | 0 kts | 146° |
| 2026-05-07 09:55 | 45.58353 | -122.57550 | 368 ft | 42 kts | 145° |
| 2026-05-07 09:55 | 45.57828 | -122.57103 | 491 ft | 113 kts | 152° |
| 2026-05-07 09:56 | 45.57077 | -122.56606 | 699 ft | 124 kts | 165° |
| 2026-05-07 09:56 | 45.56219 | -122.56323 | 783 ft | 129 kts | 173° |
| 2026-05-07 09:56 | 45.55312 | -122.56128 | 834 ft | 131 kts | 179° |
| 2026-05-07 09:56 | 45.54383 | -122.56189 | 694 ft | 140 kts | 177° |
| 2026-05-07 09:57 | 45.53515 | -122.55886 | 696 ft | 117 kts | 172° |
| 2026-05-07 09:57 | 45.52736 | -122.55711 | 560 ft | 103 kts | 171° |
| 2026-05-07 09:57 | 45.52112 | -122.55518 | 570 ft | 84 kts | 178° |
| 2026-05-07 09:57 | 45.51647 | -122.55463 | 538 ft | 53 kts | 188° |
| 2026-05-07 09:58 | 45.51419 | -122.55446 | 478 ft | 21 kts | 191° |
| 2026-05-07 09:58 | 45.51317 | -122.55435 | 364 ft | 7 kts | 267° |
| 2026-05-07 09:58 | 45.51278 | -122.55469 | 276 ft | 2 kts | 293° |
| 2026-05-07 09:58 | 45.51282 | -122.55466 | 270 ft | 0 kts | 285° |
| 2026-05-07 09:59 | 45.51296 | -122.55540 | 401 ft | 35 kts | 293° |
| 2026-05-07 09:59 | 45.51551 | -122.56115 | 483 ft | 92 kts | 318° |
| 2026-05-07 10:00 | 45.51898 | -122.56748 | 807 ft | 96 kts | 280° |
| 2026-05-07 10:00 | 45.51964 | -122.57811 | 765 ft | 119 kts | 276° |
| 2026-05-07 10:00 | 45.52197 | -122.58905 | 713 ft | 108 kts | 293° |
| 2026-05-07 10:00 | 45.52481 | -122.59904 | 653 ft | 108 kts | 295° |
| 2026-05-07 10:01 | 45.52687 | -122.60797 | 418 ft | 68 kts | 302° |
| 2026-05-07 10:01 | 45.52797 | -122.61119 | 327 ft | 18 kts | 277° |
| 2026-05-07 10:01 | 45.52799 | -122.61186 | 294 ft | 10 kts | 276° |
| 2026-05-07 10:01 | 45.52796 | -122.61192 | 259 ft | 7 kts | 274° |
| 2026-05-07 10:02 | 45.52773 | -122.61271 | 477 ft | 50 kts | 239° |
| 2026-05-07 10:02 | 45.52592 | -122.61984 | 531 ft | 85 kts | 257° |
| 2026-05-07 10:02 | 45.52425 | -122.62801 | 552 ft | 86 kts | 258° |
| 2026-05-07 10:02 | 45.52312 | -122.63331 | 638 ft | 82 kts | 257° |
| 2026-05-07 10:03 | 45.52130 | -122.64053 | 914 ft | 74 kts | 249° |
| 2026-05-07 10:03 | 45.51955 | -122.65158 | 972 ft | 103 kts | 262° |
| 2026-05-07 10:03 | 45.51828 | -122.65873 | 678 ft | 112 kts | 262° |
| 2026-05-07 10:03 | 45.51697 | -122.66837 | 602 ft | 83 kts | 268° |
| 2026-05-07 10:04 | 45.51623 | -122.67395 | 496 ft | 16 kts | 281° |
| 2026-05-07 10:04 | 45.51621 | -122.67448 | 349 ft | 3 kts | 278° |
| 2026-05-07 10:04 | 45.51627 | -122.67475 | 320 ft | 2 kts | 266° |
| 2026-05-07 10:04 | 45.51627 | -122.67477 | 307 ft | 0 kts | 268° |
| 2026-05-07 10:05 | 45.51629 | -122.67484 | 318 ft | 10 kts | 266° |
| 2026-05-07 10:05 | 45.51881 | -122.67724 | 414 ft | 73 kts | 350° |
| 2026-05-07 10:05 | 45.52482 | -122.67673 | 512 ft | 93 kts | 8° |
| 2026-05-07 10:05 | 45.53154 | -122.67729 | 385 ft | 105 kts | 332° |
| 2026-05-07 10:06 | 45.53722 | -122.68300 | 412 ft | 90 kts | 325° |
| 2026-05-07 10:06 | 45.54254 | -122.68900 | 262 ft | 105 kts | 322° |
| 2026-05-07 10:06 | 45.54805 | -122.69617 | 209 ft | 110 kts | 314° |
| 2026-05-07 10:06 | 45.55257 | -122.70507 | 169 ft | 109 kts | 305° |
| 2026-05-07 10:07 | 45.55676 | -122.71414 | 132 ft | 109 kts | 308° |
| 2026-05-07 10:07 | 45.56119 | -122.72279 | 142 ft | 107 kts | 307° |
| 2026-05-07 10:07 | 45.56622 | -122.73056 | 183 ft | 102 kts | 317° |
| 2026-05-07 10:07 | 45.57093 | -122.73807 | 243 ft | 101 kts | 310° |
| 2026-05-07 10:08 | 45.57562 | -122.74538 | 352 ft | 97 kts | 314° |
| 2026-05-07 10:08 | 45.57984 | -122.75309 | 395 ft | 99 kts | 311° |
| 2026-05-07 10:08 | 45.58392 | -122.76079 | 441 ft | 102 kts | 300° |
| 2026-05-07 10:08 | 45.58907 | -122.76835 | 351 ft | 105 kts | 328° |
| 2026-05-07 10:09 | 45.59507 | -122.77365 | 370 ft | 109 kts | 330° |
| 2026-05-07 10:09 | 45.60194 | -122.77910 | 209 ft | 114 kts | 334° |
| 2026-05-07 10:09 | 45.60863 | -122.78392 | 257 ft | 104 kts | 333° |
| 2026-05-07 10:09 | 45.61516 | -122.78662 | 468 ft | 93 kts | 343° |
| 2026-05-07 10:10 | 45.62224 | -122.78912 | 414 ft | 110 kts | 355° |
| 2026-05-07 10:10 | 45.62998 | -122.78683 | 389 ft | 121 kts | 17° |
| 2026-05-07 10:10 | 45.63681 | -122.77970 | 289 ft | 124 kts | 49° |
| 2026-05-07 10:10 | 45.64388 | -122.77310 | 198 ft | 120 kts | 25° |
| 2026-05-07 10:11 | 45.65028 | -122.76578 | 178 ft | 120 kts | 53° |
| 2026-05-07 10:11 | 45.64825 | -122.75553 | 180 ft | 124 kts | 139° |
| 2026-05-07 10:11 | 45.64140 | -122.74821 | 160 ft | 124 kts | 139° |
| 2026-05-07 10:11 | 45.63494 | -122.73989 | 123 ft | 126 kts | 142° |
| 2026-05-07 10:12 | 45.62882 | -122.73096 | 161 ft | 125 kts | 127° |
| 2026-05-07 10:12 | 45.62340 | -122.72130 | 363 ft | 133 kts | 130° |
| 2026-05-07 10:12 | 45.61806 | -122.70995 | 325 ft | 145 kts | 121° |
| 2026-05-07 10:12 | 45.61267 | -122.69761 | 239 ft | 150 kts | 120° |
| 2026-05-07 10:13 | 45.60825 | -122.68437 | 209 ft | 148 kts | 111° |
| 2026-05-07 10:13 | 45.60417 | -122.67121 | 251 ft | 141 kts | 128° |
| 2026-05-07 10:13 | 45.59627 | -122.66519 | 607 ft | 129 kts | 155° |
| 2026-05-07 10:13 | 45.58749 | -122.66054 | 583 ft | 145 kts | 159° |
| 2026-05-07 10:14 | 45.57809 | -122.65409 | 501 ft | 151 kts | 149° |
| 2026-05-07 10:14 | 45.57149 | -122.64332 | 501 ft | 146 kts | 118° |
| 2026-05-07 10:14 | 45.56649 | -122.63128 | 601 ft | 138 kts | 117° |
| 2026-05-07 10:14 | 45.56306 | -122.61842 | 658 ft | 134 kts | 100° |
| 2026-05-07 10:15 | 45.56361 | -122.60542 | 703 ft | 134 kts | 61° |
| 2026-05-07 10:15 | 45.56968 | -122.59572 | 443 ft | 102 kts | 31° |
| 2026-05-07 10:15 | 45.57182 | -122.59444 | 641 ft | 3 kts | 22° |
| 2026-05-07 10:15 | 45.57176 | -122.59457 | 574 ft | 2 kts | 20° |
| 2026-05-07 10:16 | 45.57172 | -122.59464 | 469 ft | 1 kts | 18° |
| 2026-05-07 10:16 | 45.57168 | -122.59470 | 357 ft | 1 kts | 17° |
| 2026-05-07 10:16 | 45.57167 | -122.59474 | 313 ft | 0 kts | 18° |
| 2026-05-07 10:16 | 45.57190 | -122.59453 | 345 ft | 22 kts | 32° |
| 2026-05-07 10:17 | 45.57375 | -122.59287 | 541 ft | 12 kts | 21° |
| 2026-05-07 10:17 | 45.57648 | -122.58907 | 365 ft | 86 kts | 47° |
| 2026-05-07 10:17 | 45.58036 | -122.58266 | 366 ft | 78 kts | 56° |
| 2026-05-07 10:17 | 45.58233 | -122.57883 | 184 ft | 21 kts | 60° |
| 2026-05-07 10:18 | 45.58271 | -122.57812 | 140 ft | 2 kts | 49° |
| 2026-05-07 10:18 | 45.58345 | -122.57718 | 116 ft | 25 kts | 50° |
| 2026-05-07 10:18 | 45.58421 | -122.57619 | 32 ft | 6 kts | 53° |
| 2026-05-07 10:18 | 45.58414 | -122.57600 | 27 ft | 0 kts | 53° |